Time;durP1;ratioP1;P1;durP2;ratioP2;P2;SDS_P1;SDS_P2;PMS_P1;PMS_P2;Temp;Humidity;BMP_temperature;BMP_pressure;BME280_temperature;BME280_humidity;BME280_pressure;Samples;Min_cycle;Max_cycle;Signal;HPM_P1;HPM_P2
2021/07/19 00:02:04;;;;;;;1999.90;999.90;;;22.30;99.90;;;;;;5078550;28;20493;-86
2021/07/19 00:04:41;;;;;;;1999.90;999.90;;;22.30;99.90;;;;;;5080155;28;20452;-86
2021/07/19 00:07:07;;;;;;;1999.90;999.90;;;22.20;99.90;;;;;;5080064;28;20421;-86
2021/07/19 00:09:34;;;;;;;1999.90;999.90;;;22.20;99.90;;;;;;5080823;28;20475;-86
2021/07/19 00:12:01;;;;;;;1999.90;999.90;;;22.20;99.90;;;;;;5079007;28;20410;-86
2021/07/19 00:14:27;;;;;;;1999.90;999.90;;;22.20;99.90;;;;;;5079976;28;20422;-86
2021/07/19 00:16:54;;;;;;;1999.90;999.90;;;22.20;99.90;;;;;;5079697;28;20817;-86
2021/07/19 00:19:23;;;;;;;1999.90;999.90;;;22.10;99.90;;;;;;5079350;28;20481;-86
2021/07/19 00:21:49;;;;;;;1999.90;999.90;;;22.10;99.90;;;;;;5080103;28;20463;-86
2021/07/19 00:24:15;;;;;;;1999.90;999.90;;;22.00;99.90;;;;;;5084922;28;20410;-86
2021/07/19 00:26:41;;;;;;;1999.90;999.90;;;22.00;99.90;;;;;;5083656;28;20418;-86
2021/07/19 00:29:07;;;;;;;1999.90;999.90;;;22.00;99.90;;;;;;5083203;28;20482;-86
2021/07/19 00:31:34;;;;;;;1999.90;999.90;;;22.00;99.90;;;;;;5085545;28;20168;-86
2021/07/19 00:34:01;;;;;;;1999.90;999.90;;;21.90;99.90;;;;;;5083712;28;20182;-86
2021/07/19 00:36:27;;;;;;;1999.90;999.90;;;21.80;99.90;;;;;;5084161;28;20452;-85
2021/07/19 00:38:57;;;;;;;1999.90;999.90;;;21.80;99.90;;;;;;5084061;28;20738;-86
2021/07/19 00:41:23;;;;;;;1999.90;999.90;;;21.80;99.90;;;;;;5083362;28;20401;-86
2021/07/19 00:43:49;;;;;;;1999.90;999.90;;;21.80;99.90;;;;;;5085016;28;20409;-86
2021/07/19 00:46:14;;;;;;;1999.90;999.90;;;21.80;99.90;;;;;;5084159;28;20445;-86
2021/07/19 00:48:43;;;;;;;1999.90;999.90;;;21.80;99.90;;;;;;5084225;28;20401;-86
2021/07/19 00:51:09;;;;;;;1999.90;999.90;;;21.70;99.90;;;;;;5082372;28;20168;-86
2021/07/19 00:53:35;;;;;;;1999.90;999.90;;;21.70;99.90;;;;;;5083805;28;20402;-86
2021/07/19 00:56:05;;;;;;;1999.90;999.90;;;21.70;99.90;;;;;;5084895;28;20456;-86
2021/07/19 00:58:33;;;;;;;1999.90;999.90;;;21.60;99.90;;;;;;5083386;28;20222;-86
2021/07/19 01:01:00;;;;;;;1999.90;999.90;;;21.60;99.90;;;;;;5083787;28;20406;-86
2021/07/19 01:03:28;;;;;;;1999.90;999.90;;;21.50;99.90;;;;;;5084528;28;20889;-85
2021/07/19 01:05:55;;;;;;;1999.90;999.90;;;21.50;99.90;;;;;;5081687;28;20430;-87
2021/07/19 01:08:22;;;;;;;1999.90;999.90;;;21.50;99.90;;;;;;5082367;28;20402;-86
2021/07/19 01:10:53;;;;;;;1999.90;999.90;;;21.50;99.90;;;;;;5084030;28;20398;-86
2021/07/19 01:13:19;;;;;;;1999.90;999.90;;;21.40;99.90;;;;;;5082652;28;20413;-86
2021/07/19 01:15:44;;;;;;;1999.90;999.90;;;21.40;99.90;;;;;;5081887;28;20519;-86
2021/07/19 01:18:11;;;;;;;1999.90;999.90;;;21.40;99.90;;;;;;5082292;28;20188;-86
2021/07/19 01:21:04;;;;;;;1999.90;999.90;;;21.30;99.90;;;;;;5083665;28;20164;-86
2021/07/19 01:23:57;;;;;;;1999.90;999.90;;;21.30;99.90;;;;;;5083929;28;20448;-86
2021/07/19 01:26:37;;;;;;;1999.90;999.90;;;21.30;99.90;;;;;;5082830;28;20425;-86
2021/07/19 01:29:06;;;;;;;1999.90;999.90;;;21.20;99.90;;;;;;5083296;28;20378;-86
2021/07/19 01:31:36;;;;;;;1999.90;999.90;;;21.20;99.90;;;;;;5082672;28;20413;-85
2021/07/19 01:34:08;;;;;;;1999.90;999.90;;;21.20;99.90;;;;;;5082612;28;20387;-86
2021/07/19 01:36:37;;;;;;;1999.90;999.90;;;21.20;99.90;;;;;;5080292;28;20450;-86
2021/07/19 01:39:07;;;;;;;1999.90;999.90;;;21.10;99.90;;;;;;5082944;28;20439;-86
2021/07/19 01:41:35;;;;;;;1999.90;999.90;;;21.10;99.90;;;;;;5082129;28;20406;-86
2021/07/19 01:44:05;;;;;;;1999.90;999.90;;;21.00;99.90;;;;;;5081231;28;20398;-85
2021/07/19 01:46:32;;;;;;;1999.90;999.90;;;21.00;99.90;;;;;;5081275;28;20463;-86
2021/07/19 01:48:58;;;;;;;1999.90;999.90;;;21.00;99.90;;;;;;5082961;28;20412;-86
2021/07/19 01:51:26;;;;;;;1999.90;999.90;;;21.00;99.90;;;;;;5082152;28;20406;-86
2021/07/19 01:53:52;;;;;;;1999.90;999.90;;;21.00;99.90;;;;;;5083081;28;20409;-86
2021/07/19 01:56:19;;;;;;;1999.90;999.90;;;21.00;99.90;;;;;;5082239;28;20526;-87
2021/07/19 01:58:48;;;;;;;1999.90;999.90;;;20.90;99.90;;;;;;5083010;28;20398;-86
2021/07/19 02:01:15;;;;;;;1999.90;999.90;;;20.90;99.90;;;;;;5084087;28;20399;-86
2021/07/19 02:03:41;;;;;;;1999.90;999.90;;;20.90;99.90;;;;;;5082441;28;20426;-86
2021/07/19 02:06:08;;;;;;;1999.90;999.90;;;20.90;99.90;;;;;;5082774;28;20429;-86
2021/07/19 02:08:35;;;;;;;1999.90;999.90;;;20.90;99.90;;;;;;5082213;28;20422;-86
2021/07/19 02:11:04;;;;;;;1999.90;999.90;;;20.90;99.90;;;;;;5084292;28;20923;-86
2021/07/19 02:13:34;;;;;;;1999.90;999.90;;;20.80;99.90;;;;;;5083725;28;20770;-86
2021/07/19 02:16:01;;;;;;;1999.90;999.90;;;20.80;99.90;;;;;;5082305;28;20446;-85
2021/07/19 02:18:29;;;;;;;1999.90;999.90;;;20.80;99.90;;;;;;5081705;28;20402;-86
2021/07/19 02:20:59;;;;;;;1999.90;999.90;;;20.80;99.90;;;;;;5082544;28;20402;-86
2021/07/19 02:23:26;;;;;;;1999.90;999.90;;;20.70;99.90;;;;;;5082840;28;20387;-86
2021/07/19 02:25:55;;;;;;;1999.90;999.90;;;20.70;99.90;;;;;;5081736;28;20789;-86
2021/07/19 02:28:21;;;;;;;1999.90;999.90;;;20.70;99.90;;;;;;5083562;28;20409;-86
2021/07/19 02:30:57;;;;;;;1999.90;999.90;;;20.70;99.90;;;;;;5082364;28;20402;-86
2021/07/19 02:33:24;;;;;;;1999.90;999.90;;;20.70;99.90;;;;;;5082501;28;20405;-86
2021/07/19 02:35:52;;;;;;;1999.90;999.90;;;20.60;99.90;;;;;;5081247;28;20453;-86
2021/07/19 02:38:22;;;;;;;1999.90;999.90;;;20.50;99.90;;;;;;5081657;28;20440;-86
2021/07/19 02:40:50;;;;;;;1999.90;999.90;;;20.50;99.90;;;;;;5080932;28;20405;-85
2021/07/19 02:43:17;;;;;;;1999.90;999.90;;;20.50;99.90;;;;;;5081606;28;20420;-86
2021/07/19 02:45:47;;;;;;;1999.90;999.90;;;20.50;99.90;;;;;;5080293;28;20414;-86
2021/07/19 02:48:14;;;;;;;1999.90;999.90;;;20.40;99.90;;;;;;5083099;28;20379;-86
2021/07/19 02:50:43;;;;;;;1999.90;999.90;;;20.40;99.90;;;;;;5081443;28;20413;-86
2021/07/19 02:53:12;;;;;;;1999.90;999.90;;;20.30;99.90;;;;;;5082967;28;20407;-86
2021/07/19 02:55:40;;;;;;;1999.90;999.90;;;20.40;99.90;;;;;;5083027;28;20434;-86
2021/07/19 02:58:07;;;;;;;1999.90;999.90;;;20.40;99.90;;;;;;5082047;28;20421;-86
2021/07/19 03:00:54;;;;;;;1999.90;999.90;;;20.40;99.90;;;;;;5081817;28;20402;-86
2021/07/19 03:03:26;;;;;;;1999.90;999.90;;;20.40;99.90;;;;;;5082656;28;20439;-86
2021/07/19 03:05:58;;;;;;;1999.90;999.90;;;20.30;99.90;;;;;;5080980;28;20573;-86
2021/07/19 03:08:25;;;;;;;1999.90;999.90;;;20.30;99.90;;;;;;5081702;28;20460;-86
2021/07/19 03:10:53;;;;;;;1999.90;999.90;;;20.20;99.90;;;;;;5082819;28;20418;-86
2021/07/19 03:13:31;;;;;;;1999.90;999.90;;;20.20;99.90;;;;;;5081299;28;20471;-86
2021/07/19 03:15:58;;;;;;;1999.90;999.90;;;20.30;99.90;;;;;;5081190;28;20542;-86
2021/07/19 03:18:25;;;;;;;1999.90;999.90;;;20.30;99.90;;;;;;5082561;28;20413;-86
2021/07/19 03:20:53;;;;;;;1999.90;999.90;;;20.20;99.90;;;;;;5082938;28;20403;-86
2021/07/19 03:23:22;;;;;;;1999.90;999.90;;;20.20;99.90;;;;;;5082728;28;20398;-86
2021/07/19 03:25:48;;;;;;;1999.90;999.90;;;20.20;99.90;;;;;;5081526;28;20435;-86
2021/07/19 03:28:17;;;;;;;1999.90;999.90;;;20.20;99.90;;;;;;5082415;28;20414;-86
2021/07/19 03:30:44;;;;;;;1999.90;999.90;;;20.10;99.90;;;;;;5082028;28;20412;-86
2021/07/19 03:33:11;;;;;;;1999.90;999.90;;;20.10;99.90;;;;;;5082090;28;20766;-86
2021/07/19 03:35:38;;;;;;;1999.90;999.90;;;20.10;99.90;;;;;;5081017;28;20442;-86
2021/07/19 03:38:04;;;;;;;1999.90;999.90;;;20.00;99.90;;;;;;5081651;28;20512;-86
2021/07/19 03:40:30;;;;;;;1999.90;999.90;;;20.00;99.90;;;;;;5082202;28;20477;-86
2021/07/19 03:42:58;;;;;;;1999.90;999.90;;;20.00;99.90;;;;;;5081110;28;20415;-86
2021/07/19 03:45:26;;;;;;;1999.90;999.90;;;20.00;99.90;;;;;;5081253;28;21045;-86
2021/07/19 03:47:56;;;;;;;1999.90;999.90;;;20.00;99.90;;;;;;5081255;28;20476;-86
2021/07/19 03:50:22;;;;;;;1999.90;999.90;;;19.90;99.90;;;;;;5081003;28;20402;-86
2021/07/19 03:52:50;;;;;;;1999.90;999.90;;;19.90;99.90;;;;;;5081857;28;20952;-86
2021/07/19 03:55:16;;;;;;;1999.90;999.90;;;19.90;99.90;;;;;;5081250;28;20415;-87
2021/07/19 03:57:44;;;;;;;1999.90;999.90;;;19.90;99.90;;;;;;5080878;28;20437;-86
2021/07/19 04:00:15;;;;;;;1999.90;999.90;;;19.90;99.90;;;;;;5081429;28;20405;-86
2021/07/19 04:02:44;;;;;;;1999.90;999.90;;;19.90;99.90;;;;;;5082220;28;20412;-86
2021/07/19 04:05:14;;;;;;;1999.90;999.90;;;19.90;99.90;;;;;;5082524;28;20809;-86
2021/07/19 04:07:46;;;;;;;1999.90;999.90;;;19.90;99.90;;;;;;5081295;28;20442;-86
2021/07/19 04:10:15;;;;;;;1999.90;999.90;;;19.90;99.90;;;;;;5082649;28;20479;-86
2021/07/19 04:12:47;;;;;;;1999.90;999.90;;;19.80;99.90;;;;;;5082563;28;20399;-86
2021/07/19 04:15:16;;;;;;;1999.90;999.90;;;19.80;99.90;;;;;;5082394;28;20396;-86
2021/07/19 04:17:45;;;;;;;1999.90;999.90;;;19.90;99.90;;;;;;5082650;28;20544;-86
2021/07/19 04:20:12;;;;;;;1999.90;999.90;;;19.90;99.90;;;;;;5080551;28;20404;-86
2021/07/19 04:22:38;;;;;;;1999.90;999.90;;;19.90;99.90;;;;;;5080529;28;20492;-86
2021/07/19 04:25:09;;;;;;;1999.90;999.90;;;19.90;99.90;;;;;;5081406;28;20424;-86
2021/07/19 04:27:38;;;;;;;1999.90;999.90;;;19.90;99.90;;;;;;5083184;28;20233;-86
2021/07/19 04:30:05;;;;;;;1999.90;999.90;;;19.90;99.90;;;;;;5082467;28;20408;-86
2021/07/19 04:32:31;;;;;;;1999.90;999.90;;;19.90;99.90;;;;;;5081175;28;20950;-86
2021/07/19 04:34:57;;;;;;;1999.90;999.90;;;19.90;99.90;;;;;;5081903;28;20409;-86
2021/07/19 04:37:23;;;;;;;1999.90;999.90;;;19.90;99.90;;;;;;5081953;28;20198;-86
2021/07/19 04:39:49;;;;;;;1999.90;999.90;;;19.90;99.90;;;;;;5081955;28;20765;-86
2021/07/19 04:42:15;;;;;;;1999.90;999.90;;;19.80;99.90;;;;;;5080589;28;20214;-86
2021/07/19 04:44:41;;;;;;;1999.90;999.90;;;19.90;99.90;;;;;;5080829;28;20416;-86
2021/07/19 04:47:07;;;;;;;1999.90;999.90;;;19.90;99.90;;;;;;5080391;28;20524;-86
2021/07/19 04:49:37;;;;;;;1999.90;999.90;;;19.80;99.90;;;;;;5082367;28;20820;-86
2021/07/19 04:52:03;;;;;;;1999.90;999.90;;;20.00;99.90;;;;;;5081617;28;20770;-86
2021/07/19 04:54:38;;;;;;;1999.90;999.90;;;20.10;99.90;;;;;;5081968;28;20459;-86
2021/07/19 04:57:06;;;;;;;1999.90;999.90;;;20.20;99.90;;;;;;5080719;28;20546;-86
2021/07/19 04:59:39;;;;;;;1999.90;999.90;;;20.30;99.90;;;;;;5082482;28;20477;-86
2021/07/19 05:02:08;;;;;;;1999.90;999.90;;;20.50;99.90;;;;;;5080539;28;20395;-86
2021/07/19 05:04:35;;;;;;;1999.90;999.90;;;20.50;99.90;;;;;;5081766;28;20567;-86
2021/07/19 05:07:02;;;;;;;1999.90;999.90;;;20.60;99.90;;;;;;5081994;28;20511;-86
2021/07/19 05:09:29;;;;;;;1999.90;999.90;;;20.50;99.90;;;;;;5083860;28;20452;-86
2021/07/19 05:12:01;;;;;;;1999.90;999.90;;;20.40;99.90;;;;;;5085609;28;20716;-86
2021/07/19 05:14:27;;;;;;;1999.90;999.90;;;20.50;99.90;;;;;;5085125;28;20533;-86
2021/07/19 05:16:54;;;;;;;1999.90;999.90;;;20.50;99.90;;;;;;5083887;28;20469;-86
2021/07/19 05:19:21;;;;;;;1999.90;999.90;;;20.40;99.90;;;;;;5085459;28;20402;-86
2021/07/19 05:21:49;;;;;;;1999.90;999.90;;;20.40;99.90;;;;;;5084777;28;20418;-86
2021/07/19 05:24:15;;;;;;;1999.90;999.90;;;20.30;99.90;;;;;;5082585;28;20464;-86
2021/07/19 05:26:41;;;;;;;1999.90;999.90;;;20.30;99.90;;;;;;5080895;28;20432;-87
2021/07/19 05:29:07;;;;;;;1999.90;999.90;;;20.40;99.90;;;;;;5079759;28;20235;-86
2021/07/19 05:31:33;;;;;;;1999.90;999.90;;;20.40;99.90;;;;;;5079059;28;20176;-87
2021/07/19 05:33:58;;;;;;;1999.90;999.90;;;20.30;99.90;;;;;;5079874;28;20419;-87
2021/07/19 05:42:03;;;;;;;1999.90;999.90;;;20.20;99.90;;;;;;5057453;28;20533;-87
2021/07/19 05:44:52;;;;;;;;;;;;;;;;;;;;;
2021/07/19 05:47:44;;;;;;;1999.90;999.90;;;20.10;99.90;;;;;;5075096;28;20504;-86
2021/07/19 05:50:30;;;;;;;;;;;;;;;;;;;;;
2021/07/19 05:59:22;;;;;;;1999.90;999.90;;;20.20;99.90;;;;;;5059283;28;20466;-86
2021/07/19 06:02:03;;;;;;;1999.90;999.90;;;20.20;99.90;;;;;;5079863;28;20419;-86
2021/07/19 06:08:09;;;;;;;1999.90;999.90;;;20.20;99.90;;;;;;5076390;28;20427;-87
2021/07/19 06:10:46;;;;;;;1999.90;999.90;;;20.00;99.90;;;;;;5078024;28;20380;-86
2021/07/19 06:14:11;;;;;;;;;;;;;;;;;;;;;
2021/07/19 06:19:19;;;;;;;1999.90;999.90;;;20.10;99.90;;;;;;5258827;22;20482;-87
2021/07/19 06:22:12;;;;;;;1999.90;999.90;;;20.20;99.90;;;;;;5055018;28;20437;-86
2021/07/19 06:24:45;;;;;;;1999.90;999.90;;;20.30;99.90;;;;;;5055359;28;20393;-85
2021/07/19 06:27:30;;;;;;;1999.90;999.90;;;20.40;99.90;;;;;;5051910;28;20444;-86
2021/07/19 06:29:56;;;;;;;1999.90;999.90;;;20.30;99.90;;;;;;5057647;28;20414;-85
2021/07/19 06:32:22;;;;;;;1999.90;999.90;;;20.30;99.90;;;;;;5075125;28;20406;-86
2021/07/19 06:34:47;;;;;;;1999.90;999.90;;;20.40;99.90;;;;;;5075054;28;20167;-85
2021/07/19 06:37:13;;;;;;;1999.90;999.90;;;20.60;99.90;;;;;;5074787;28;20193;-85
2021/07/19 06:39:39;;;;;;;1999.90;999.90;;;20.60;99.90;;;;;;5058018;28;20647;-85
2021/07/19 06:42:04;;;;;;;1999.90;999.90;;;20.50;99.90;;;;;;5057149;28;20168;-85
2021/07/19 06:44:33;;;;;;;1999.90;999.90;;;20.70;99.90;;;;;;5057045;28;20165;-85
2021/07/19 06:46:59;;;;;;;1999.90;999.90;;;20.80;99.90;;;;;;5075127;28;20215;-85
2021/07/19 06:49:26;;;;;;;1999.90;999.90;;;20.80;99.90;;;;;;5056791;28;20455;-85
2021/07/19 06:51:52;;;;;;;1999.90;999.90;;;20.80;99.90;;;;;;5057732;28;20472;-85
2021/07/19 06:54:20;;;;;;;1999.90;999.90;;;20.80;99.90;;;;;;5075330;28;20406;-86
2021/07/19 06:56:46;;;;;;;1999.90;999.90;;;20.80;99.90;;;;;;5057028;28;20450;-85
2021/07/19 06:59:12;;;;;;;1999.90;999.90;;;20.70;99.90;;;;;;5075316;28;20471;-85
2021/07/19 07:01:40;;;;;;;1999.90;999.90;;;20.80;99.90;;;;;;5057366;28;20172;-85
2021/07/19 07:04:07;;;;;;;1999.90;999.90;;;20.70;99.90;;;;;;5074964;28;20407;-86
2021/07/19 07:06:33;;;;;;;1999.90;999.90;;;20.60;99.90;;;;;;5075150;28;20952;-85
2021/07/19 07:08:59;;;;;;;1999.90;999.90;;;20.70;99.90;;;;;;5079043;28;20404;-86
2021/07/19 07:11:27;;;;;;;1999.90;999.90;;;20.60;99.90;;;;;;5078585;28;20408;-86
2021/07/19 07:13:57;;;;;;;1999.90;999.90;;;20.50;99.90;;;;;;5061382;28;20757;-86
2021/07/19 07:16:23;;;;;;;1999.90;999.90;;;20.40;99.90;;;;;;5078621;28;20450;-86
2021/07/19 07:18:49;;;;;;;1999.90;999.90;;;20.40;99.90;;;;;;5060283;28;20456;-86
2021/07/19 07:21:15;;;;;;;1999.90;999.90;;;20.60;99.90;;;;;;5062432;28;20403;-86
2021/07/19 07:23:41;;;;;;;1999.90;999.90;;;20.60;99.90;;;;;;5060594;28;20177;-86
2021/07/19 07:26:14;;;;;;;1999.90;999.90;;;20.60;99.90;;;;;;5061092;28;20430;-86
2021/07/19 07:28:40;;;;;;;1999.90;999.90;;;20.60;99.90;;;;;;5060789;28;20229;-87
2021/07/19 07:31:06;;;;;;;1999.90;999.90;;;20.60;99.90;;;;;;5078108;28;20406;-87
2021/07/19 07:33:32;;;;;;;1999.90;999.90;;;20.70;99.90;;;;;;5078953;28;20168;-86
2021/07/19 07:35:57;;;;;;;1999.90;999.90;;;20.80;99.90;;;;;;5062438;28;20462;-86
2021/07/19 07:38:23;;;;;;;1999.90;999.90;;;20.90;99.90;;;;;;5079305;28;20421;-86
2021/07/19 07:40:58;;;;;;;1999.90;999.90;;;20.90;99.90;;;;;;5076400;28;20166;-86
2021/07/19 07:43:27;;;;;;;1999.90;999.90;;;20.90;99.90;;;;;;5079033;28;20168;-86
2021/07/19 07:45:53;;;;;;;1999.90;999.90;;;20.90;99.90;;;;;;5060806;28;20952;-86
2021/07/19 07:48:18;;;;;;;1999.90;999.90;;;20.80;99.90;;;;;;5060978;28;20500;-86
2021/07/19 07:50:45;;;;;;;1999.90;999.90;;;20.80;99.90;;;;;;5079451;28;20692;-86
2021/07/19 07:53:11;;;;;;;1999.90;999.90;;;20.80;99.90;;;;;;5079419;28;20164;-86
2021/07/19 07:55:38;;;;;;;1999.90;999.90;;;20.90;99.90;;;;;;5079583;28;20796;-85
2021/07/19 07:58:07;;;;;;;1999.90;999.90;;;20.90;99.90;;;;;;5062882;28;20773;-86
2021/07/19 08:00:35;;;;;;;1999.90;999.90;;;20.90;99.90;;;;;;5080675;28;20405;-86
2021/07/19 08:03:01;;;;;;;1999.90;999.90;;;20.90;99.90;;;;;;5079991;28;20405;-87
2021/07/19 08:05:27;;;;;;;1999.90;999.90;;;20.90;99.90;;;;;;5062319;28;20781;-86
2021/07/19 08:07:55;;;;;;;1999.90;999.90;;;21.00;99.90;;;;;;5061815;28;20247;-87
2021/07/19 08:10:21;;;;;;;1999.90;999.90;;;20.90;99.90;;;;;;5061810;28;20223;-87
2021/07/19 08:12:48;;;;;;;1999.90;999.90;;;21.00;99.90;;;;;;5080564;28;20401;-86
2021/07/19 08:15:15;;;;;;;1999.90;999.90;;;21.00;99.90;;;;;;5061980;28;20163;-86
2021/07/19 08:17:42;;;;;;;1999.90;999.90;;;21.00;99.90;;;;;;5062802;28;20464;-87
2021/07/19 08:20:11;;;;;;;1999.90;999.90;;;21.10;99.90;;;;;;5063168;28;20401;-86
2021/07/19 08:22:37;;;;;;;1999.90;999.90;;;21.20;99.90;;;;;;5061979;28;20417;-87
2021/07/19 08:25:03;;;;;;;1999.90;999.90;;;21.10;99.90;;;;;;5080515;28;20404;-86
2021/07/19 08:27:29;;;;;;;1999.90;999.90;;;21.10;99.90;;;;;;5062632;28;20188;-86
2021/07/19 08:30:01;;;;;;;1999.90;999.90;;;21.20;99.90;;;;;;5078870;28;20405;-86
2021/07/19 08:32:27;;;;;;;1999.90;999.90;;;21.10;99.90;;;;;;5080451;28;20182;-86
2021/07/19 08:34:55;;;;;;;1999.90;999.90;;;21.10;99.90;;;;;;5061721;28;20409;-86
2021/07/19 08:37:57;;;;;;;1999.90;999.90;;;21.10;99.90;;;;;;5078421;28;20202;-86
2021/07/19 08:40:25;;;;;;;1999.90;999.90;;;21.10;99.90;;;;;;5053181;28;20409;-86
2021/07/19 08:42:52;;;;;;;1999.90;999.90;;;21.00;99.90;;;;;;5063469;28;20411;-87
2021/07/19 08:45:18;;;;;;;1999.90;999.90;;;21.20;99.90;;;;;;5085954;28;20435;-86
2021/07/19 08:47:48;;;;;;;1999.90;999.90;;;21.10;99.90;;;;;;5067104;28;20434;-87
2021/07/19 08:50:16;;;;;;;1999.90;999.90;;;21.20;99.90;;;;;;5084398;28;20224;-86
2021/07/19 08:52:42;;;;;;;1999.90;999.90;;;21.20;99.90;;;;;;5083832;28;20835;-87
2021/07/19 08:55:10;;;;;;;1999.90;999.90;;;21.00;99.90;;;;;;5065778;28;20543;-86
2021/07/19 08:57:40;;;;;;;1999.90;999.90;;;21.10;99.50;;;;;;5066585;28;20460;-86
2021/07/19 09:00:08;;;;;;;1999.90;999.90;;;21.20;99.90;;;;;;5066787;28;20440;-87
2021/07/19 09:02:34;;;;;;;1999.90;999.90;;;21.20;99.90;;;;;;5061565;28;20505;-86
2021/07/19 09:04:59;;;;;;;1999.90;999.90;;;21.40;99.90;;;;;;5077230;28;20426;-86
2021/07/19 09:07:25;;;;;;;1999.90;999.90;;;21.30;99.90;;;;;;5060383;28;20425;-85
2021/07/19 09:09:52;;;;;;;1999.90;999.90;;;21.50;99.90;;;;;;5136387;22;20222;-86
2021/07/19 09:12:32;;;;;;;1999.90;999.90;;;21.60;99.90;;;;;;5084023;28;20402;-86
2021/07/19 09:15:00;;;;;;;1999.90;999.90;;;21.70;99.90;;;;;;5085494;28;20379;-85
2021/07/19 09:17:28;;;;;;;1999.90;999.90;;;21.70;98.80;;;;;;5099453;28;20525;-86
2021/07/19 09:19:56;;;;;;;1999.90;999.90;;;21.60;99.30;;;;;;5103519;28;20492;-86
2021/07/19 09:22:30;;;;;;;1999.90;999.90;;;21.50;99.90;;;;;;5103796;28;20486;-86
2021/07/19 09:25:09;;;;;;;1999.90;999.90;;;21.50;99.90;;;;;;5103806;28;20407;-85
2021/07/19 09:27:35;;;;;;;1999.90;999.90;;;21.50;99.90;;;;;;5103726;28;20413;-85
2021/07/19 09:30:11;;;;;;;1999.90;999.90;;;21.70;99.90;;;;;;5102844;28;20412;-85
2021/07/19 09:33:06;;;;;;;1999.90;999.90;;;21.70;99.90;;;;;;5104275;28;20156;-85
2021/07/19 09:35:34;;;;;;;1999.90;999.90;;;21.60;99.90;;;;;;5106006;28;20869;-85
2021/07/19 09:38:07;;;;;;;1999.90;999.90;;;21.50;99.90;;;;;;5104532;28;20410;-86
2021/07/19 09:40:35;;;;;;;1999.90;999.90;;;21.60;99.90;;;;;;5103453;28;20459;-85
2021/07/19 09:43:19;;;;;;;1999.90;999.90;;;21.50;99.90;;;;;;5104092;28;20428;-86
2021/07/19 09:45:55;;;;;;;1999.90;999.90;;;21.60;99.90;;;;;;5103128;28;20408;-86
2021/07/19 09:48:22;;;;;;;1999.90;999.90;;;21.60;99.90;;;;;;5104333;28;20382;-86
2021/07/19 09:50:52;;;;;;;1999.90;999.90;;;21.70;99.90;;;;;;5104269;28;20475;-86
2021/07/19 09:53:33;;;;;;;1999.90;999.90;;;21.80;98.00;;;;;;5103836;28;20431;-85
2021/07/19 09:56:19;;;;;;;1999.90;999.90;;;21.80;96.90;;;;;;5099769;28;20453;-84
2021/07/19 09:59:03;;;;;;;1999.90;999.90;;;21.70;97.90;;;;;;5104401;28;20378;-86
2021/07/19 10:01:34;;;;;;;1999.90;999.90;;;21.60;98.10;;;;;;5103244;28;20749;-85
2021/07/19 10:04:12;;;;;;;1999.90;999.90;;;21.80;97.50;;;;;;5102896;28;20394;-86
2021/07/19 10:06:39;;;;;;;1999.90;999.90;;;21.90;97.20;;;;;;5102661;28;20440;-85
2021/07/19 10:09:16;;;;;;;1999.90;999.90;;;21.90;97.40;;;;;;5104042;28;20820;-86
2021/07/19 10:11:46;;;;;;;1999.90;999.90;;;22.00;96.00;;;;;;5103631;28;20437;-86
2021/07/19 10:14:12;;;;;;;1999.90;999.90;;;22.20;95.10;;;;;;5104215;28;20405;-86
2021/07/19 10:16:39;;;;;;;1999.90;999.90;;;22.20;94.20;;;;;;5104414;28;20508;-86
2021/07/19 10:19:05;;;;;;;1999.90;999.90;;;22.50;95.10;;;;;;5103579;28;20413;-86
2021/07/19 10:21:34;;;;;;;1999.90;999.90;;;22.60;92.90;;;;;;5104509;28;20394;-86
2021/07/19 10:24:05;;;;;;;1999.90;999.90;;;22.70;91.20;;;;;;5104943;28;20416;-86
2021/07/19 10:26:31;;;;;;;1999.90;999.90;;;22.80;92.30;;;;;;5105084;28;20460;-86
2021/07/19 10:29:01;;;;;;;1999.90;999.90;;;22.80;90.10;;;;;;5101882;28;20765;-86
2021/07/19 10:31:28;;;;;;;1999.90;999.90;;;22.80;90.80;;;;;;5101828;28;20818;-85
2021/07/19 10:33:58;;;;;;;1999.90;999.90;;;22.80;90.70;;;;;;5102851;28;20475;-85
2021/07/19 10:36:35;;;;;;;1999.90;999.90;;;22.40;92.00;;;;;;5103703;28;20444;-85
2021/07/19 10:39:11;;;;;;;1999.90;999.90;;;22.40;93.00;;;;;;5104390;28;20441;-86
2021/07/19 10:41:40;;;;;;;1999.90;999.90;;;22.40;94.20;;;;;;5103612;28;20386;-86
2021/07/19 10:44:08;;;;;;;1999.90;999.90;;;22.40;92.50;;;;;;5101645;28;20412;-87
2021/07/19 10:46:36;;;;;;;1999.90;999.90;;;22.30;93.00;;;;;;5101478;28;20433;-86
2021/07/19 10:49:16;;;;;;;1999.90;999.90;;;22.30;94.60;;;;;;5103381;28;20916;-86
2021/07/19 10:51:45;;;;;;;1999.90;999.90;;;22.50;94.20;;;;;;5103595;28;20393;-86
2021/07/19 10:54:22;;;;;;;1999.90;999.90;;;22.50;93.60;;;;;;5102943;28;20891;-86
2021/07/19 10:56:55;;;;;;;1999.90;999.90;;;22.70;93.80;;;;;;5102347;28;21024;-86
2021/07/19 10:59:24;;;;;;;1999.90;999.90;;;22.90;93.60;;;;;;5102378;28;20390;-86
2021/07/19 11:01:55;;;;;;;1999.90;999.90;;;23.00;91.90;;;;;;5101784;28;20408;-85
2021/07/19 11:04:22;;;;;;;1999.90;999.90;;;23.10;89.10;;;;;;5100972;28;20389;-86
2021/07/19 11:06:56;;;;;;;1999.90;999.90;;;23.10;85.10;;;;;;5101534;28;20445;-85
2021/07/19 11:09:36;;;;;;;1999.90;999.90;;;23.20;87.30;;;;;;5101418;28;20425;-86
2021/07/19 11:12:16;;;;;;;1999.90;999.90;;;23.40;85.90;;;;;;5101228;28;20470;-86
2021/07/19 11:14:55;;;;;;;1999.90;999.90;;;23.40;84.70;;;;;;5103970;28;20450;-86
2021/07/19 11:17:22;;;;;;;1999.90;999.90;;;23.40;84.10;;;;;;5101268;28;20445;-85
2021/07/19 11:19:54;;;;;;;1999.90;999.90;;;23.40;81.30;;;;;;5103347;28;20417;-86
2021/07/19 11:22:26;;;;;;;1999.90;999.90;;;23.40;80.70;;;;;;5103766;28;20385;-86
2021/07/19 11:25:09;;;;;;;1999.90;999.90;;;23.00;84.00;;;;;;5102449;28;20374;-86
2021/07/19 11:27:38;;;;;;;1999.90;999.90;;;22.90;84.50;;;;;;5102084;28;20932;-86
2021/07/19 11:30:17;;;;;;;1999.90;999.90;;;23.10;85.70;;;;;;5101840;28;20900;-86
2021/07/19 11:32:43;;;;;;;1999.90;999.90;;;23.20;80.80;;;;;;5103032;28;20801;-86
2021/07/19 11:35:23;;;;;;;1999.90;999.90;;;23.10;81.60;;;;;;5102074;28;20996;-86
2021/07/19 11:37:52;;;;;;;1999.90;999.90;;;23.10;86.10;;;;;;5098681;28;20671;-86
2021/07/19 11:40:30;;;;;;;1999.90;999.90;;;23.30;86.80;;;;;;5101107;28;20788;-86
2021/07/19 11:43:06;;;;;;;1999.90;999.90;;;23.30;82.10;;;;;;5099879;28;20443;-83
2021/07/19 11:48:14;;;;;;;1999.90;999.90;;;23.60;78.40;;;;;;5021073;28;20496;-85
2021/07/19 11:50:52;;;;;;;1999.90;999.90;;;23.70;76.50;;;;;;5020603;28;20388;-86
2021/07/19 11:53:21;;;;;;;1999.90;999.90;;;23.60;77.60;;;;;;5019629;28;20397;-86
2021/07/19 11:55:50;;;;;;;1999.90;999.90;;;23.50;75.60;;;;;;5024486;28;20419;-86
2021/07/19 11:58:25;;;;;;;1999.90;999.90;;;23.50;76.90;;;;;;5040725;28;20416;-86
2021/07/19 12:00:54;;;;;;;1999.90;999.90;;;23.60;78.30;;;;;;5039954;28;20470;-86
2021/07/19 12:03:36;;;;;;;1999.90;999.90;;;23.50;78.10;;;;;;5043294;28;20404;-86
2021/07/19 12:06:14;;;;;;;1999.90;999.90;;;23.40;77.60;;;;;;5043706;28;20838;-86
2021/07/19 12:09:19;;;;;;;1999.90;999.90;;;23.30;77.50;;;;;;5041596;28;20428;-86
2021/07/19 12:12:03;;;;;;;1999.90;999.90;;;23.40;79.60;;;;;;5042140;28;20451;-86
2021/07/19 12:18:39;;;;;;;1999.90;999.90;;;23.50;79.00;;;;;;4980335;28;20914;-86
2021/07/19 12:21:39;;;;;;;1999.90;999.90;;;23.50;74.70;;;;;;4981451;28;20419;-86
2021/07/19 12:24:29;;;;;;;1999.90;999.90;;;23.50;67.20;;;;;;4980305;28;20433;-86
2021/07/19 12:27:05;;;;;;;1999.90;999.90;;;23.50;70.10;;;;;;5035371;23;21035;-86
2021/07/19 12:29:39;;;;;;;1999.90;999.90;;;23.30;74.00;;;;;;5061496;28;20455;-86
2021/07/19 12:32:11;;;;;;;1999.90;999.90;;;23.10;81.60;;;;;;5061042;28;20399;-86
2021/07/19 12:34:46;;;;;;;1999.90;999.90;;;22.90;86.30;;;;;;5061267;28;20751;-87
2021/07/19 12:37:18;;;;;;;1999.90;999.90;;;22.90;89.70;;;;;;5075194;28;20451;-87
2021/07/19 12:39:58;;;;;;;1999.90;999.90;;;22.90;85.40;;;;;;5078775;28;20531;-86
2021/07/19 12:42:40;;;;;;;1999.90;999.90;;;23.00;85.00;;;;;;5081508;28;20751;-86
2021/07/19 12:45:09;;;;;;;1999.90;999.90;;;22.90;87.50;;;;;;5081005;28;20417;-86